sensor_id;sensor_type;location;lat;lon;timestamp;temperature;humidity
6256;DHT22;3161;48.794;9.784;2022-09-09T00:00:53;14.80;99.90
6256;DHT22;3161;48.794;9.784;2022-09-09T00:03:19;14.80;99.90
6256;DHT22;3161;48.794;9.784;2022-09-09T00:06:06;14.80;99.90
6256;DHT22;3161;48.794;9.784;2022-09-09T00:11:24;14.80;99.90
6256;DHT22;3161;48.794;9.784;2022-09-09T00:13:52;14.80;99.90
6256;DHT22;3161;48.794;9.784;2022-09-09T00:16:24;14.80;99.90
6256;DHT22;3161;48.794;9.784;2022-09-09T00:21:36;14.70;99.90
6256;DHT22;3161;48.794;9.784;2022-09-09T00:24:17;14.80;99.90
6256;DHT22;3161;48.794;9.784;2022-09-09T00:26:42;14.80;99.90
6256;DHT22;3161;48.794;9.784;2022-09-09T00:29:24;14.70;99.90
6256;DHT22;3161;48.794;9.784;2022-09-09T00:31:47;14.70;99.90
6256;DHT22;3161;48.794;9.784;2022-09-09T00:34:21;14.70;99.90
6256;DHT22;3161;48.794;9.784;2022-09-09T00:36:50;14.70;99.90
6256;DHT22;3161;48.794;9.784;2022-09-09T00:39:34;14.70;99.90
6256;DHT22;3161;48.794;9.784;2022-09-09T00:42:16;14.70;99.90
6256;DHT22;3161;48.794;9.784;2022-09-09T00:45:05;14.70;99.90
6256;DHT22;3161;48.794;9.784;2022-09-09T00:47:43;14.70;99.90
6256;DHT22;3161;48.794;9.784;2022-09-09T00:53:01;14.60;99.90
6256;DHT22;3161;48.794;9.784;2022-09-09T00:55:34;14.60;99.90
6256;DHT22;3161;48.794;9.784;2022-09-09T00:57:58;14.60;99.90
6256;DHT22;3161;48.794;9.784;2022-09-09T01:00:31;14.60;99.90
6256;DHT22;3161;48.794;9.784;2022-09-09T01:06:16;14.60;99.90
6256;DHT22;3161;48.794;9.784;2022-09-09T01:11:32;14.60;99.90
6256;DHT22;3161;48.794;9.784;2022-09-09T01:14:05;14.60;99.90
6256;DHT22;3161;48.794;9.784;2022-09-09T01:16:29;14.60;99.90
6256;DHT22;3161;48.794;9.784;2022-09-09T01:18:58;14.50;99.90
6256;DHT22;3161;48.794;9.784;2022-09-09T01:26:59;14.60;99.90
6256;DHT22;3161;48.794;9.784;2022-09-09T01:29:27;14.60;99.90
6256;DHT22;3161;48.794;9.784;2022-09-09T01:32:35;14.60;99.90
6256;DHT22;3161;48.794;9.784;2022-09-09T01:34:36;14.60;99.90
6256;DHT22;3161;48.794;9.784;2022-09-09T01:37:10;14.60;99.90
6256;DHT22;3161;48.794;9.784;2022-09-09T01:39:40;14.60;99.90
6256;DHT22;3161;48.794;9.784;2022-09-09T01:42:09;14.60;99.90
6256;DHT22;3161;48.794;9.784;2022-09-09T01:44:38;14.60;99.90
6256;DHT22;3161;48.794;9.784;2022-09-09T01:47:06;14.70;99.90
6256;DHT22;3161;48.794;9.784;2022-09-09T01:49:34;14.70;99.90
6256;DHT22;3161;48.794;9.784;2022-09-09T01:52:02;14.70;99.90
6256;DHT22;3161;48.794;9.784;2022-09-09T01:54:31;14.70;99.90
6256;DHT22;3161;48.794;9.784;2022-09-09T01:59:49;14.70;99.90
6256;DHT22;3161;48.794;9.784;2022-09-09T02:02:28;14.60;99.90
6256;DHT22;3161;48.794;9.784;2022-09-09T02:05:02;14.60;99.90
6256;DHT22;3161;48.794;9.784;2022-09-09T02:07:41;14.60;99.90
6256;DHT22;3161;48.794;9.784;2022-09-09T02:10:20;14.60;99.90
6256;DHT22;3161;48.794;9.784;2022-09-09T02:12:55;14.50;99.90
6256;DHT22;3161;48.794;9.784;2022-09-09T02:18:21;14.50;99.90
6256;DHT22;3161;48.794;9.784;2022-09-09T02:20:48;14.50;99.90
6256;DHT22;3161;48.794;9.784;2022-09-09T02:23:18;14.50;99.90
6256;DHT22;3161;48.794;9.784;2022-09-09T02:25:47;14.50;99.90
6256;DHT22;3161;48.794;9.784;2022-09-09T02:28:18;14.50;99.90
6256;DHT22;3161;48.794;9.784;2022-09-09T02:30:49;14.40;99.90
6256;DHT22;3161;48.794;9.784;2022-09-09T02:33:27;14.40;99.90
6256;DHT22;3161;48.794;9.784;2022-09-09T02:35:55;14.40;99.90
6256;DHT22;3161;48.794;9.784;2022-09-09T02:38:26;14.30;99.90
6256;DHT22;3161;48.794;9.784;2022-09-09T02:40:55;14.30;99.90
6256;DHT22;3161;48.794;9.784;2022-09-09T02:43:22;14.30;99.90
6256;DHT22;3161;48.794;9.784;2022-09-09T02:45:59;14.30;99.90
6256;DHT22;3161;48.794;9.784;2022-09-09T02:48:39;14.20;99.90
6256;DHT22;3161;48.794;9.784;2022-09-09T02:51:10;14.20;99.90
6256;DHT22;3161;48.794;9.784;2022-09-09T02:53:43;14.20;99.90
6256;DHT22;3161;48.794;9.784;2022-09-09T02:56:16;14.20;99.90
6256;DHT22;3161;48.794;9.784;2022-09-09T02:58:44;14.20;99.90
6256;DHT22;3161;48.794;9.784;2022-09-09T03:01:13;14.20;99.90
6256;DHT22;3161;48.794;9.784;2022-09-09T03:03:40;14.20;99.90
6256;DHT22;3161;48.794;9.784;2022-09-09T03:06:08;14.10;99.90
6256;DHT22;3161;48.794;9.784;2022-09-09T03:08:38;14.10;99.90
6256;DHT22;3161;48.794;9.784;2022-09-09T03:11:05;14.00;99.90
6256;DHT22;3161;48.794;9.784;2022-09-09T03:13:33;14.00;99.90
6256;DHT22;3161;48.794;9.784;2022-09-09T03:16:00;14.00;99.90
6256;DHT22;3161;48.794;9.784;2022-09-09T03:18:28;14.00;99.90
6256;DHT22;3161;48.794;9.784;2022-09-09T03:20:55;14.00;99.90
6256;DHT22;3161;48.794;9.784;2022-09-09T03:23:24;14.00;99.90
6256;DHT22;3161;48.794;9.784;2022-09-09T03:25:51;13.90;99.90
6256;DHT22;3161;48.794;9.784;2022-09-09T03:28:21;13.90;99.90
6256;DHT22;3161;48.794;9.784;2022-09-09T03:30:49;13.90;99.90
6256;DHT22;3161;48.794;9.784;2022-09-09T03:33:17;13.90;99.90
6256;DHT22;3161;48.794;9.784;2022-09-09T03:35:48;13.90;99.90
6256;DHT22;3161;48.794;9.784;2022-09-09T03:38:15;13.90;99.90
6256;DHT22;3161;48.794;9.784;2022-09-09T03:40:54;13.90;99.90
6256;DHT22;3161;48.794;9.784;2022-09-09T03:43:23;13.90;99.90
6256;DHT22;3161;48.794;9.784;2022-09-09T03:45:51;13.80;99.90
6256;DHT22;3161;48.794;9.784;2022-09-09T03:48:19;13.90;99.90
6256;DHT22;3161;48.794;9.784;2022-09-09T03:50:48;13.90;99.90
6256;DHT22;3161;48.794;9.784;2022-09-09T03:53:17;13.90;99.90
6256;DHT22;3161;48.794;9.784;2022-09-09T03:55:50;13.90;99.90
6256;DHT22;3161;48.794;9.784;2022-09-09T03:58:21;13.90;99.90
6256;DHT22;3161;48.794;9.784;2022-09-09T04:00:58;13.90;99.90
6256;DHT22;3161;48.794;9.784;2022-09-09T04:03:26;13.90;99.90
6256;DHT22;3161;48.794;9.784;2022-09-09T04:05:55;13.90;99.90
6256;DHT22;3161;48.794;9.784;2022-09-09T04:08:23;13.90;99.90
6256;DHT22;3161;48.794;9.784;2022-09-09T04:10:53;13.90;99.90
6256;DHT22;3161;48.794;9.784;2022-09-09T04:13:25;13.90;99.90
6256;DHT22;3161;48.794;9.784;2022-09-09T04:15:55;13.90;99.90
6256;DHT22;3161;48.794;9.784;2022-09-09T04:18:23;13.90;99.90
6256;DHT22;3161;48.794;9.784;2022-09-09T04:20:53;13.90;99.90
6256;DHT22;3161;48.794;9.784;2022-09-09T04:23:23;13.90;99.90
6256;DHT22;3161;48.794;9.784;2022-09-09T04:25:53;13.90;99.90
6256;DHT22;3161;48.794;9.784;2022-09-09T04:28:24;13.90;99.90
6256;DHT22;3161;48.794;9.784;2022-09-09T04:30:52;13.90;99.90
6256;DHT22;3161;48.794;9.784;2022-09-09T04:33:20;14.00;99.90
6256;DHT22;3161;48.794;9.784;2022-09-09T04:35:49;14.00;99.90
6256;DHT22;3161;48.794;9.784;2022-09-09T04:38:18;14.00;99.90
6256;DHT22;3161;48.794;9.784;2022-09-09T04:40:48;14.00;99.90
6256;DHT22;3161;48.794;9.784;2022-09-09T04:43:18;14.00;99.90
6256;DHT22;3161;48.794;9.784;2022-09-09T04:45:48;14.00;99.90
6256;DHT22;3161;48.794;9.784;2022-09-09T04:48:15;14.10;99.90
6256;DHT22;3161;48.794;9.784;2022-09-09T04:50:43;14.10;99.90
6256;DHT22;3161;48.794;9.784;2022-09-09T04:53:11;14.10;99.90
6256;DHT22;3161;48.794;9.784;2022-09-09T04:55:39;14.10;99.90
6256;DHT22;3161;48.794;9.784;2022-09-09T04:58:07;14.10;99.90
6256;DHT22;3161;48.794;9.784;2022-09-09T05:00:37;14.10;99.90
6256;DHT22;3161;48.794;9.784;2022-09-09T05:03:05;14.10;99.90
6256;DHT22;3161;48.794;9.784;2022-09-09T05:05:35;14.10;99.90
6256;DHT22;3161;48.794;9.784;2022-09-09T05:08:04;14.10;99.90
6256;DHT22;3161;48.794;9.784;2022-09-09T05:10:33;14.10;99.90
6256;DHT22;3161;48.794;9.784;2022-09-09T05:13:02;14.10;99.90
6256;DHT22;3161;48.794;9.784;2022-09-09T05:15:30;14.20;99.90
6256;DHT22;3161;48.794;9.784;2022-09-09T05:17:59;14.20;99.90
6256;DHT22;3161;48.794;9.784;2022-09-09T05:20:27;14.20;99.90
6256;DHT22;3161;48.794;9.784;2022-09-09T05:22:56;14.20;99.90
6256;DHT22;3161;48.794;9.784;2022-09-09T05:25:24;14.20;99.90
6256;DHT22;3161;48.794;9.784;2022-09-09T05:27:54;14.30;99.90
6256;DHT22;3161;48.794;9.784;2022-09-09T05:30:22;14.30;99.90
6256;DHT22;3161;48.794;9.784;2022-09-09T05:32:51;14.30;99.90
6256;DHT22;3161;48.794;9.784;2022-09-09T05:35:19;14.40;99.90
6256;DHT22;3161;48.794;9.784;2022-09-09T05:37:47;14.40;99.90
6256;DHT22;3161;48.794;9.784;2022-09-09T05:40:15;14.40;99.90
6256;DHT22;3161;48.794;9.784;2022-09-09T05:42:42;14.50;99.90
6256;DHT22;3161;48.794;9.784;2022-09-09T05:45:10;14.50;99.90
6256;DHT22;3161;48.794;9.784;2022-09-09T05:47:37;14.50;99.90
6256;DHT22;3161;48.794;9.784;2022-09-09T05:50:05;14.50;99.90
6256;DHT22;3161;48.794;9.784;2022-09-09T05:52:34;14.50;99.90
6256;DHT22;3161;48.794;9.784;2022-09-09T05:55:01;14.60;99.90
6256;DHT22;3161;48.794;9.784;2022-09-09T05:57:30;14.60;99.90
6256;DHT22;3161;48.794;9.784;2022-09-09T05:59:58;14.70;99.90
6256;DHT22;3161;48.794;9.784;2022-09-09T06:02:26;14.80;99.90
6256;DHT22;3161;48.794;9.784;2022-09-09T06:04:54;14.80;99.90
6256;DHT22;3161;48.794;9.784;2022-09-09T06:07:22;14.80;99.90
6256;DHT22;3161;48.794;9.784;2022-09-09T06:09:50;14.90;99.90
6256;DHT22;3161;48.794;9.784;2022-09-09T06:12:18;15.00;99.90
6256;DHT22;3161;48.794;9.784;2022-09-09T06:14:45;15.10;99.90
6256;DHT22;3161;48.794;9.784;2022-09-09T06:17:14;15.10;99.90
6256;DHT22;3161;48.794;9.784;2022-09-09T06:19:41;15.20;99.90
6256;DHT22;3161;48.794;9.784;2022-09-09T06:22:09;15.20;99.90
6256;DHT22;3161;48.794;9.784;2022-09-09T06:24:38;15.20;99.90
6256;DHT22;3161;48.794;9.784;2022-09-09T06:27:05;15.30;99.90
6256;DHT22;3161;48.794;9.784;2022-09-09T06:29:33;15.30;99.90
6256;DHT22;3161;48.794;9.784;2022-09-09T06:32:01;15.40;99.90
6256;DHT22;3161;48.794;9.784;2022-09-09T06:34:29;15.40;99.90
6256;DHT22;3161;48.794;9.784;2022-09-09T06:36:56;15.40;99.90
6256;DHT22;3161;48.794;9.784;2022-09-09T06:39:24;15.50;99.90
6256;DHT22;3161;48.794;9.784;2022-09-09T06:41:52;15.50;99.90
6256;DHT22;3161;48.794;9.784;2022-09-09T06:44:19;15.60;99.90
6256;DHT22;3161;48.794;9.784;2022-09-09T06:46:48;15.70;99.90
6256;DHT22;3161;48.794;9.784;2022-09-09T06:49:16;15.70;99.90
6256;DHT22;3161;48.794;9.784;2022-09-09T06:51:44;15.80;99.90
6256;DHT22;3161;48.794;9.784;2022-09-09T06:54:12;15.90;99.90
6256;DHT22;3161;48.794;9.784;2022-09-09T06:56:41;16.00;99.90
6256;DHT22;3161;48.794;9.784;2022-09-09T06:59:10;16.10;99.90
6256;DHT22;3161;48.794;9.784;2022-09-09T07:01:40;16.30;99.90
6256;DHT22;3161;48.794;9.784;2022-09-09T07:04:08;16.50;99.90
6256;DHT22;3161;48.794;9.784;2022-09-09T07:06:42;16.60;99.90
6256;DHT22;3161;48.794;9.784;2022-09-09T07:09:12;16.70;99.90
6256;DHT22;3161;48.794;9.784;2022-09-09T07:11:42;16.80;99.90
6256;DHT22;3161;48.794;9.784;2022-09-09T07:14:11;16.80;99.90
6256;DHT22;3161;48.794;9.784;2022-09-09T07:16:42;16.90;99.90
6256;DHT22;3161;48.794;9.784;2022-09-09T07:19:11;17.00;99.90
6256;DHT22;3161;48.794;9.784;2022-09-09T07:21:40;17.10;99.90
6256;DHT22;3161;48.794;9.784;2022-09-09T07:24:09;17.20;99.90
6256;DHT22;3161;48.794;9.784;2022-09-09T07:26:38;17.30;99.90
6256;DHT22;3161;48.794;9.784;2022-09-09T07:29:07;17.40;99.90
6256;DHT22;3161;48.794;9.784;2022-09-09T07:31:37;17.40;99.90
6256;DHT22;3161;48.794;9.784;2022-09-09T07:34:06;17.50;99.90
6256;DHT22;3161;48.794;9.784;2022-09-09T07:36:36;17.60;99.90
6256;DHT22;3161;48.794;9.784;2022-09-09T07:39:07;17.70;99.90
6256;DHT22;3161;48.794;9.784;2022-09-09T07:41:38;17.70;99.90
6256;DHT22;3161;48.794;9.784;2022-09-09T07:44:08;17.80;99.90
6256;DHT22;3161;48.794;9.784;2022-09-09T07:46:38;17.90;99.90
6256;DHT22;3161;48.794;9.784;2022-09-09T07:49:06;17.90;99.90
6256;DHT22;3161;48.794;9.784;2022-09-09T07:51:36;18.00;99.90
6256;DHT22;3161;48.794;9.784;2022-09-09T07:54:06;18.30;99.90
6256;DHT22;3161;48.794;9.784;2022-09-09T07:56:35;18.60;99.90
6256;DHT22;3161;48.794;9.784;2022-09-09T07:59:04;19.30;99.90
6256;DHT22;3161;48.794;9.784;2022-09-09T08:01:35;20.20;99.90
6256;DHT22;3161;48.794;9.784;2022-09-09T08:04:15;21.10;99.90
6256;DHT22;3161;48.794;9.784;2022-09-09T08:06:40;22.00;99.90
6256;DHT22;3161;48.794;9.784;2022-09-09T08:09:09;22.50;99.90
6256;DHT22;3161;48.794;9.784;2022-09-09T08:11:38;22.70;99.90
6256;DHT22;3161;48.794;9.784;2022-09-09T08:14:07;22.60;99.90
6256;DHT22;3161;48.794;9.784;2022-09-09T08:16:39;22.60;99.90
6256;DHT22;3161;48.794;9.784;2022-09-09T08:19:05;22.90;99.90
6256;DHT22;3161;48.794;9.784;2022-09-09T08:21:35;23.10;99.90
6256;DHT22;3161;48.794;9.784;2022-09-09T08:24:04;23.20;99.90
6256;DHT22;3161;48.794;9.784;2022-09-09T08:26:35;23.40;99.90
6256;DHT22;3161;48.794;9.784;2022-09-09T08:29:05;23.70;99.90
6256;DHT22;3161;48.794;9.784;2022-09-09T08:31:36;23.90;99.90
6256;DHT22;3161;48.794;9.784;2022-09-09T08:34:04;23.90;99.90
6256;DHT22;3161;48.794;9.784;2022-09-09T08:36:37;23.80;99.90
6256;DHT22;3161;48.794;9.784;2022-09-09T08:39:07;23.80;99.90
6256;DHT22;3161;48.794;9.784;2022-09-09T08:41:57;23.90;99.90
6256;DHT22;3161;48.794;9.784;2022-09-09T08:47:34;24.20;99.90
6256;DHT22;3161;48.794;9.784;2022-09-09T08:50:19;24.30;99.90
6256;DHT22;3161;48.794;9.784;2022-09-09T08:55:25;24.20;99.90
6256;DHT22;3161;48.794;9.784;2022-09-09T08:57:55;24.00;99.90
6256;DHT22;3161;48.794;9.784;2022-09-09T09:00:27;23.80;99.90
6256;DHT22;3161;48.794;9.784;2022-09-09T09:03:18;23.60;99.90
6256;DHT22;3161;48.794;9.784;2022-09-09T09:05:55;23.40;99.90
6256;DHT22;3161;48.794;9.784;2022-09-09T09:08:36;23.20;99.90
6256;DHT22;3161;48.794;9.784;2022-09-09T09:11:04;23.00;99.90
6256;DHT22;3161;48.794;9.784;2022-09-09T09:16:39;22.40;99.90
6256;DHT22;3161;48.794;9.784;2022-09-09T09:19:07;22.40;99.90
6256;DHT22;3161;48.794;9.784;2022-09-09T09:21:49;22.40;99.90
6256;DHT22;3161;48.794;9.784;2022-09-09T09:24:43;22.30;99.90
6256;DHT22;3161;48.794;9.784;2022-09-09T09:27:33;22.30;99.90
6256;DHT22;3161;48.794;9.784;2022-09-09T09:30:12;22.30;99.90
6256;DHT22;3161;48.794;9.784;2022-09-09T09:32:35;22.20;99.90
6256;DHT22;3161;48.794;9.784;2022-09-09T09:35:11;22.10;99.90
6256;DHT22;3161;48.794;9.784;2022-09-09T09:37:35;22.00;99.90
6256;DHT22;3161;48.794;9.784;2022-09-09T09:40:10;22.00;99.90
6256;DHT22;3161;48.794;9.784;2022-09-09T09:42:49;21.90;99.90
6256;DHT22;3161;48.794;9.784;2022-09-09T09:45:35;21.90;99.90
6256;DHT22;3161;48.794;9.784;2022-09-09T09:48:06;21.90;99.90
6256;DHT22;3161;48.794;9.784;2022-09-09T09:50:34;21.80;99.90
6256;DHT22;3161;48.794;9.784;2022-09-09T09:53:05;21.90;99.90
6256;DHT22;3161;48.794;9.784;2022-09-09T09:55:35;21.90;99.90
6256;DHT22;3161;48.794;9.784;2022-09-09T09:58:05;21.90;99.90
6256;DHT22;3161;48.794;9.784;2022-09-09T10:00:33;21.90;99.90
6256;DHT22;3161;48.794;9.784;2022-09-09T10:03:13;21.90;99.90
6256;DHT22;3161;48.794;9.784;2022-09-09T10:05:36;22.00;99.90
6256;DHT22;3161;48.794;9.784;2022-09-09T10:19:18;21.90;99.90
6256;DHT22;3161;48.794;9.784;2022-09-09T10:22:04;22.00;99.90
6256;DHT22;3161;48.794;9.784;2022-09-09T10:24:44;22.20;99.90
6256;DHT22;3161;48.794;9.784;2022-09-09T10:30:17;22.60;99.90
6256;DHT22;3161;48.794;9.784;2022-09-09T10:32:48;22.80;99.90
6256;DHT22;3161;48.794;9.784;2022-09-09T10:35:37;22.90;99.90
6256;DHT22;3161;48.794;9.784;2022-09-09T10:40:47;23.20;99.90
6256;DHT22;3161;48.794;9.784;2022-09-09T10:46:15;23.60;99.90
6256;DHT22;3161;48.794;9.784;2022-09-09T10:48:45;23.80;99.90
6256;DHT22;3161;48.794;9.784;2022-09-09T10:51:33;23.90;99.90
6256;DHT22;3161;48.794;9.784;2022-09-09T10:56:50;24.20;99.90
6256;DHT22;3161;48.794;9.784;2022-09-09T10:59:31;24.20;98.10
6256;DHT22;3161;48.794;9.784;2022-09-09T11:02:02;24.20;99.90
6256;DHT22;3161;48.794;9.784;2022-09-09T11:04:41;24.20;97.70
6256;DHT22;3161;48.794;9.784;2022-09-09T11:07:12;24.20;97.30
6256;DHT22;3161;48.794;9.784;2022-09-09T11:09:42;24.20;96.50
6256;DHT22;3161;48.794;9.784;2022-09-09T11:12:13;24.20;95.50
6256;DHT22;3161;48.794;9.784;2022-09-09T11:14:59;24.30;96.30
6256;DHT22;3161;48.794;9.784;2022-09-09T11:17:39;24.40;95.80
6256;DHT22;3161;48.794;9.784;2022-09-09T11:20:05;24.50;95.00
6256;DHT22;3161;48.794;9.784;2022-09-09T11:22:37;24.60;95.30
6256;DHT22;3161;48.794;9.784;2022-09-09T11:25:29;24.70;93.90
6256;DHT22;3161;48.794;9.784;2022-09-09T11:31:07;24.80;94.50
6256;DHT22;3161;48.794;9.784;2022-09-09T11:34:02;25.00;92.10
6256;DHT22;3161;48.794;9.784;2022-09-09T11:36:36;25.00;92.50
6256;DHT22;3161;48.794;9.784;2022-09-09T11:39:13;24.90;90.00
6256;DHT22;3161;48.794;9.784;2022-09-09T11:41:37;24.70;90.50
6256;DHT22;3161;48.794;9.784;2022-09-09T11:44:13;24.60;89.20
6256;DHT22;3161;48.794;9.784;2022-09-09T11:46:43;24.40;90.00
6256;DHT22;3161;48.794;9.784;2022-09-09T11:49:40;24.40;90.00
6256;DHT22;3161;48.794;9.784;2022-09-09T11:51:57;24.50;93.40
6256;DHT22;3161;48.794;9.784;2022-09-09T11:54:33;24.70;92.80
6256;DHT22;3161;48.794;9.784;2022-09-09T11:57:03;24.90;91.40
6256;DHT22;3161;48.794;9.784;2022-09-09T11:59:32;25.00;87.40
6256;DHT22;3161;48.794;9.784;2022-09-09T12:02:03;25.00;85.50
6256;DHT22;3161;48.794;9.784;2022-09-09T12:04:35;25.00;85.00
6256;DHT22;3161;48.794;9.784;2022-09-09T12:09:51;24.90;79.70
6256;DHT22;3161;48.794;9.784;2022-09-09T12:12:24;24.70;81.20
6256;DHT22;3161;48.794;9.784;2022-09-09T12:15:16;24.50;82.20
6256;DHT22;3161;48.794;9.784;2022-09-09T12:17:53;24.30;83.50
6256;DHT22;3161;48.794;9.784;2022-09-09T12:20:20;24.20;83.50
6256;DHT22;3161;48.794;9.784;2022-09-09T12:31:05;23.40;93.30
6256;DHT22;3161;48.794;9.784;2022-09-09T12:33:36;23.00;93.90
6256;DHT22;3161;48.794;9.784;2022-09-09T12:36:28;22.70;95.40
6256;DHT22;3161;48.794;9.784;2022-09-09T12:38:52;22.50;96.80
6256;DHT22;3161;48.794;9.784;2022-09-09T12:41:23;22.30;98.10
6256;DHT22;3161;48.794;9.784;2022-09-09T12:43:51;22.20;99.90
6256;DHT22;3161;48.794;9.784;2022-09-09T12:46:27;22.10;99.90
6256;DHT22;3161;48.794;9.784;2022-09-09T12:48:53;22.30;99.90
6256;DHT22;3161;48.794;9.784;2022-09-09T12:51:30;22.40;99.90
6256;DHT22;3161;48.794;9.784;2022-09-09T12:53:59;22.60;99.90
6256;DHT22;3161;48.794;9.784;2022-09-09T12:56:29;22.70;99.90
6256;DHT22;3161;48.794;9.784;2022-09-09T12:58:59;22.60;99.90
6256;DHT22;3161;48.794;9.784;2022-09-09T13:01:32;22.50;99.90
6256;DHT22;3161;48.794;9.784;2022-09-09T13:04:02;22.50;99.90
6256;DHT22;3161;48.794;9.784;2022-09-09T13:06:32;22.70;99.90
6256;DHT22;3161;48.794;9.784;2022-09-09T13:09:01;22.90;99.50
6256;DHT22;3161;48.794;9.784;2022-09-09T13:11:48;23.10;98.60
6256;DHT22;3161;48.794;9.784;2022-09-09T13:14:23;23.40;97.90
6256;DHT22;3161;48.794;9.784;2022-09-09T13:16:58;23.30;97.60
6256;DHT22;3161;48.794;9.784;2022-09-09T13:19:26;23.40;96.10
6256;DHT22;3161;48.794;9.784;2022-09-09T13:21:55;23.40;94.90
6256;DHT22;3161;48.794;9.784;2022-09-09T13:24:32;23.50;94.10
6256;DHT22;3161;48.794;9.784;2022-09-09T13:27:02;23.50;95.20
6256;DHT22;3161;48.794;9.784;2022-09-09T13:29:32;23.70;94.20
6256;DHT22;3161;48.794;9.784;2022-09-09T13:34:58;24.10;93.80
6256;DHT22;3161;48.794;9.784;2022-09-09T13:37:38;24.60;94.90
6256;DHT22;3161;48.794;9.784;2022-09-09T13:40:16;24.90;91.90
6256;DHT22;3161;48.794;9.784;2022-09-09T13:42:42;25.30;91.90
6256;DHT22;3161;48.794;9.784;2022-09-09T13:45:18;25.70;92.70
6256;DHT22;3161;48.794;9.784;2022-09-09T13:47:50;26.10;90.50
6256;DHT22;3161;48.794;9.784;2022-09-09T13:50:27;26.40;90.20
6256;DHT22;3161;48.794;9.784;2022-09-09T13:52:57;26.80;88.40
6256;DHT22;3161;48.794;9.784;2022-09-09T13:55:27;27.50;85.00
6256;DHT22;3161;48.794;9.784;2022-09-09T13:58:01;28.20;85.30
6256;DHT22;3161;48.794;9.784;2022-09-09T14:00:29;29.10;79.40
6256;DHT22;3161;48.794;9.784;2022-09-09T14:02:56;30.10;74.20
6256;DHT22;3161;48.794;9.784;2022-09-09T14:05:23;31.20;70.70
6256;DHT22;3161;48.794;9.784;2022-09-09T14:07:51;31.40;68.90
6256;DHT22;3161;48.794;9.784;2022-09-09T14:10:19;30.90;66.20
6256;DHT22;3161;48.794;9.784;2022-09-09T14:12:48;30.30;72.20
6256;DHT22;3161;48.794;9.784;2022-09-09T14:15:16;29.80;71.30
6256;DHT22;3161;48.794;9.784;2022-09-09T14:17:44;29.10;69.60
6256;DHT22;3161;48.794;9.784;2022-09-09T14:20:11;28.40;72.00
6256;DHT22;3161;48.794;9.784;2022-09-09T14:22:41;27.70;71.90
6256;DHT22;3161;48.794;9.784;2022-09-09T14:25:10;27.10;76.90
6256;DHT22;3161;48.794;9.784;2022-09-09T14:27:39;26.70;77.30
6256;DHT22;3161;48.794;9.784;2022-09-09T14:30:08;26.20;78.70
6256;DHT22;3161;48.794;9.784;2022-09-09T14:32:36;25.80;80.40
6256;DHT22;3161;48.794;9.784;2022-09-09T14:35:04;25.60;82.00
6256;DHT22;3161;48.794;9.784;2022-09-09T14:37:32;26.70;82.10
6256;DHT22;3161;48.794;9.784;2022-09-09T14:40:01;29.80;72.60
6256;DHT22;3161;48.794;9.784;2022-09-09T14:42:28;33.30;63.50
6256;DHT22;3161;48.794;9.784;2022-09-09T14:44:56;35.00;55.20
6256;DHT22;3161;48.794;9.784;2022-09-09T14:47:24;34.90;52.30
6256;DHT22;3161;48.794;9.784;2022-09-09T14:49:52;35.70;49.50
6256;DHT22;3161;48.794;9.784;2022-09-09T14:52:20;36.70;48.80
6256;DHT22;3161;48.794;9.784;2022-09-09T14:54:47;38.10;43.40
6256;DHT22;3161;48.794;9.784;2022-09-09T14:57:16;37.50;40.20
6256;DHT22;3161;48.794;9.784;2022-09-09T14:59:43;36.00;40.20
6256;DHT22;3161;48.794;9.784;2022-09-09T15:02:11;35.20;41.00
6256;DHT22;3161;48.794;9.784;2022-09-09T15:04:40;33.80;42.10
6256;DHT22;3161;48.794;9.784;2022-09-09T15:07:07;31.80;45.50
6256;DHT22;3161;48.794;9.784;2022-09-09T15:09:35;30.40;48.00
6256;DHT22;3161;48.794;9.784;2022-09-09T15:12:04;29.20;50.00
6256;DHT22;3161;48.794;9.784;2022-09-09T15:14:32;28.30;53.10
6256;DHT22;3161;48.794;9.784;2022-09-09T15:16:59;27.70;55.60
6256;DHT22;3161;48.794;9.784;2022-09-09T15:19:27;27.10;54.70
6256;DHT22;3161;48.794;9.784;2022-09-09T15:21:55;26.50;54.90
6256;DHT22;3161;48.794;9.784;2022-09-09T15:24:23;26.00;55.20
6256;DHT22;3161;48.794;9.784;2022-09-09T15:26:51;25.50;56.40
6256;DHT22;3161;48.794;9.784;2022-09-09T15:29:20;25.20;57.40
6256;DHT22;3161;48.794;9.784;2022-09-09T15:31:47;24.80;58.50
6256;DHT22;3161;48.794;9.784;2022-09-09T15:34:15;24.60;60.50
6256;DHT22;3161;48.794;9.784;2022-09-09T15:36:44;24.30;60.50
6256;DHT22;3161;48.794;9.784;2022-09-09T15:39:16;24.10;61.90
6256;DHT22;3161;48.794;9.784;2022-09-09T15:41:46;23.80;61.30
6256;DHT22;3161;48.794;9.784;2022-09-09T15:44:14;23.70;63.90
6256;DHT22;3161;48.794;9.784;2022-09-09T15:46:49;23.50;63.70
6256;DHT22;3161;48.794;9.784;2022-09-09T15:49:19;23.50;65.50
6256;DHT22;3161;48.794;9.784;2022-09-09T15:51:56;23.40;65.80
6256;DHT22;3161;48.794;9.784;2022-09-09T15:54:25;23.40;65.60
6256;DHT22;3161;48.794;9.784;2022-09-09T15:56:55;23.40;66.40
6256;DHT22;3161;48.794;9.784;2022-09-09T15:59:24;23.30;65.60
6256;DHT22;3161;48.794;9.784;2022-09-09T16:01:53;23.30;65.40
6256;DHT22;3161;48.794;9.784;2022-09-09T16:04:23;23.30;68.00
6256;DHT22;3161;48.794;9.784;2022-09-09T16:06:52;23.30;65.80
6256;DHT22;3161;48.794;9.784;2022-09-09T16:09:21;23.20;65.00
6256;DHT22;3161;48.794;9.784;2022-09-09T16:11:48;23.10;65.00
6256;DHT22;3161;48.794;9.784;2022-09-09T16:14:16;23.00;65.00
6256;DHT22;3161;48.794;9.784;2022-09-09T16:16:44;23.00;64.90
6256;DHT22;3161;48.794;9.784;2022-09-09T16:19:12;22.90;65.60
6256;DHT22;3161;48.794;9.784;2022-09-09T16:21:45;22.80;66.30
6256;DHT22;3161;48.794;9.784;2022-09-09T16:24:15;22.70;67.00
6256;DHT22;3161;48.794;9.784;2022-09-09T16:26:44;22.60;66.90
6256;DHT22;3161;48.794;9.784;2022-09-09T16:29:13;22.50;66.30
6256;DHT22;3161;48.794;9.784;2022-09-09T16:31:42;22.40;67.50
6256;DHT22;3161;48.794;9.784;2022-09-09T16:34:10;22.30;67.00
6256;DHT22;3161;48.794;9.784;2022-09-09T16:36:39;22.20;67.90
6256;DHT22;3161;48.794;9.784;2022-09-09T16:39:10;22.10;68.20
6256;DHT22;3161;48.794;9.784;2022-09-09T16:41:39;22.10;69.20
6256;DHT22;3161;48.794;9.784;2022-09-09T16:44:10;22.10;69.80
6256;DHT22;3161;48.794;9.784;2022-09-09T16:46:40;22.00;70.90
6256;DHT22;3161;48.794;9.784;2022-09-09T16:49:09;22.00;70.50
6256;DHT22;3161;48.794;9.784;2022-09-09T16:51:43;21.90;71.20
6256;DHT22;3161;48.794;9.784;2022-09-09T16:54:11;21.90;71.90
6256;DHT22;3161;48.794;9.784;2022-09-09T16:56:42;21.80;73.20
6256;DHT22;3161;48.794;9.784;2022-09-09T16:59:15;21.80;74.60
6256;DHT22;3161;48.794;9.784;2022-09-09T17:01:42;21.80;74.70
6256;DHT22;3161;48.794;9.784;2022-09-09T17:04:12;21.80;77.10
6256;DHT22;3161;48.794;9.784;2022-09-09T17:06:45;21.70;79.40
6256;DHT22;3161;48.794;9.784;2022-09-09T17:09:11;21.70;78.40
6256;DHT22;3161;48.794;9.784;2022-09-09T17:11:40;21.70;79.10
6256;DHT22;3161;48.794;9.784;2022-09-09T17:14:11;21.60;78.20
6256;DHT22;3161;48.794;9.784;2022-09-09T17:16:38;21.60;79.60
6256;DHT22;3161;48.794;9.784;2022-09-09T17:19:07;21.50;78.10
6256;DHT22;3161;48.794;9.784;2022-09-09T17:21:36;21.50;77.80
6256;DHT22;3161;48.794;9.784;2022-09-09T17:24:03;21.40;79.40
6256;DHT22;3161;48.794;9.784;2022-09-09T17:26:32;21.30;77.90
6256;DHT22;3161;48.794;9.784;2022-09-09T17:29:02;21.30;76.80
6256;DHT22;3161;48.794;9.784;2022-09-09T17:31:30;21.20;76.20
6256;DHT22;3161;48.794;9.784;2022-09-09T17:33:59;21.10;77.90
6256;DHT22;3161;48.794;9.784;2022-09-09T17:36:33;21.00;78.10
6256;DHT22;3161;48.794;9.784;2022-09-09T17:38:57;21.00;78.10